Terminal Aerodrome Forecast
Issued by NWS

Home | Current Version | Previous Version | Text Only | Print | Product List | Glossary On
Versions: 1 2 3 4 5 6 7 8 9 10 11 12 13 14 15 16 17 18 19 20 21 22 23 24 25 26 27
215
FTUS43 KLOT 301458 AAB
TAFMDW
TAF AMD
KMDW 301458Z 3015/3112 VRB05KT P6SM SCT012 BKN080
     FM301800 24006KT P6SM VCSH BKN035
     FM302100 25006KT P6SM VCTS BKN035CB
     FM310000 28005KT P6SM SCT040 BKN180
     FM310800 33006KT P6SM SCT040 BKN180=

USA.gov is the U.S. government's official web portal to all federal, state and local government web resources and services.